sensor_id;sensor_type;location;lat;lon;timestamp;pressure;altitude;pressure_sealevel;temperature;humidity
62418;BME280;48456;54.242;10.280;2023-03-21T00:01:43;101373.69;;;6.23;100.00
62418;BME280;48456;54.242;10.280;2023-03-21T00:04:10;101380.75;;;6.24;100.00
62418;BME280;48456;54.242;10.280;2023-03-21T00:06:37;101378.97;;;6.25;100.00
62418;BME280;48456;54.242;10.280;2023-03-21T00:09:03;101379.00;;;6.27;100.00
62418;BME280;48456;54.242;10.280;2023-03-21T00:11:30;101373.72;;;6.25;100.00
62418;BME280;48456;54.242;10.280;2023-03-21T00:13:56;101378.09;;;6.24;100.00
62418;BME280;48456;54.242;10.280;2023-03-21T00:16:27;101375.44;;;6.23;100.00
62418;BME280;48456;54.242;10.280;2023-03-21T00:19:18;101369.28;;;6.22;100.00
62418;BME280;48456;54.242;10.280;2023-03-21T00:21:46;101373.63;;;6.20;100.00
62418;BME280;48456;54.242;10.280;2023-03-21T00:24:31;101367.47;;;6.20;100.00
62418;BME280;48456;54.242;10.280;2023-03-21T00:26:57;101369.22;;;6.19;100.00
62418;BME280;48456;54.242;10.280;2023-03-21T00:29:44;101364.84;;;6.20;100.00
62418;BME280;48456;54.242;10.280;2023-03-21T00:32:10;101364.84;;;6.20;100.00
62418;BME280;48456;54.242;10.280;2023-03-21T00:34:36;101362.25;;;6.21;100.00
62418;BME280;48456;54.242;10.280;2023-03-21T00:37:19;101359.63;;;6.21;100.00
62418;BME280;48456;54.242;10.280;2023-03-21T00:39:46;101360.50;;;6.22;100.00
62418;BME280;48456;54.242;10.280;2023-03-21T00:42:14;101359.63;;;6.21;100.00
62418;BME280;48456;54.242;10.280;2023-03-21T00:44:41;101360.53;;;6.23;100.00
62418;BME280;48456;54.242;10.280;2023-03-21T00:47:09;101358.81;;;6.24;100.00
62418;BME280;48456;54.242;10.280;2023-03-21T00:49:36;101353.66;;;6.27;100.00
62418;BME280;48456;54.242;10.280;2023-03-21T00:52:04;101363.28;;;6.28;100.00
62418;BME280;48456;54.242;10.280;2023-03-21T00:54:42;101349.25;;;6.28;100.00
62418;BME280;48456;54.242;10.280;2023-03-21T00:57:08;101350.97;;;6.26;100.00
62418;BME280;48456;54.242;10.280;2023-03-21T00:59:34;101354.47;;;6.26;100.00
62418;BME280;48456;54.242;10.280;2023-03-21T01:02:01;101356.19;;;6.24;100.00
62418;BME280;48456;54.242;10.280;2023-03-21T01:04:27;101348.38;;;6.27;100.00
62418;BME280;48456;54.242;10.280;2023-03-21T01:06:54;101354.47;;;6.24;100.00
62418;BME280;48456;54.242;10.280;2023-03-21T01:09:21;101349.22;;;6.24;100.00
62418;BME280;48456;54.242;10.280;2023-03-21T01:11:48;101352.63;;;6.22;100.00
62418;BME280;48456;54.242;10.280;2023-03-21T01:16:52;101349.16;;;6.23;100.00
62418;BME280;48456;54.242;10.280;2023-03-21T01:19:20;101353.56;;;6.24;100.00
62418;BME280;48456;54.242;10.280;2023-03-21T01:21:58;101345.59;;;6.21;100.00
62418;BME280;48456;54.242;10.280;2023-03-21T01:24:24;101352.63;;;6.22;100.00
62418;BME280;48456;54.242;10.280;2023-03-21T01:26:51;101343.00;;;6.22;100.00
62418;BME280;48456;54.242;10.280;2023-03-21T01:29:17;101350.97;;;6.26;100.00
62418;BME280;48456;54.242;10.280;2023-03-21T01:31:44;101336.94;;;6.25;100.00
62418;BME280;48456;54.242;10.280;2023-03-21T01:34:10;101340.47;;;6.26;100.00
62418;BME280;48456;54.242;10.280;2023-03-21T01:36:37;101341.38;;;6.28;100.00
62418;BME280;48456;54.242;10.280;2023-03-21T01:39:04;101343.13;;;6.27;100.00
62418;BME280;48456;54.242;10.280;2023-03-21T01:41:48;101333.56;;;6.31;100.00
62418;BME280;48456;54.242;10.280;2023-03-21T01:44:21;101335.28;;;6.30;100.00
62418;BME280;48456;54.242;10.280;2023-03-21T01:47:04;101333.56;;;6.31;100.00
62418;BME280;48456;54.242;10.280;2023-03-21T01:49:38;101330.94;;;6.31;100.00
62418;BME280;48456;54.242;10.280;2023-03-21T01:52:07;101332.59;;;6.26;100.00
62418;BME280;48456;54.242;10.280;2023-03-21T01:54:42;101330.81;;;6.24;100.00
62418;BME280;48456;54.242;10.280;2023-03-21T01:57:11;101330.81;;;6.24;100.00
62418;BME280;48456;54.242;10.280;2023-03-21T01:59:39;101330.84;;;6.28;100.00
62418;BME280;48456;54.242;10.280;2023-03-21T02:02:10;101333.44;;;6.26;100.00
62418;BME280;48456;54.242;10.280;2023-03-21T02:04:37;101325.56;;;6.26;100.00
62418;BME280;48456;54.242;10.280;2023-03-21T02:07:05;101327.41;;;6.30;100.00
62418;BME280;48456;54.242;10.280;2023-03-21T02:09:33;101327.44;;;6.32;100.00
62418;BME280;48456;54.242;10.280;2023-03-21T02:12:00;101326.59;;;6.31;100.00
62418;BME280;48456;54.242;10.280;2023-03-21T02:14:27;101323.09;;;6.32;100.00
62418;BME280;48456;54.242;10.280;2023-03-21T02:19:31;101320.44;;;6.31;100.00
62418;BME280;48456;54.242;10.280;2023-03-21T02:27:55;101315.97;;;6.27;100.00
62418;BME280;48456;54.242;10.280;2023-03-21T02:33:36;101314.28;;;6.30;100.00
62418;BME280;48456;54.242;10.280;2023-03-21T02:38:42;101304.66;;;6.31;100.00
62418;BME280;48456;54.242;10.280;2023-03-21T02:41:28;101304.66;;;6.31;100.00
62418;BME280;48456;54.242;10.280;2023-03-21T02:44:06;101302.00;;;6.29;100.00
62418;BME280;48456;54.242;10.280;2023-03-21T02:46:37;101304.66;;;6.31;100.00
62418;BME280;48456;54.242;10.280;2023-03-21T02:49:26;101304.66;;;6.31;100.00
62418;BME280;48456;54.242;10.280;2023-03-21T02:51:56;101302.03;;;6.31;100.00
62418;BME280;48456;54.242;10.280;2023-03-21T02:54:30;101287.22;;;6.33;100.00
62418;BME280;48456;54.242;10.280;2023-03-21T02:57:12;101304.75;;;6.34;100.00
62418;BME280;48456;54.242;10.280;2023-03-21T02:59:39;101294.22;;;6.34;100.00
62418;BME280;48456;54.242;10.280;2023-03-21T03:02:20;101289.84;;;6.34;100.00
62418;BME280;48456;54.242;10.280;2023-03-21T03:04:48;101292.47;;;6.34;100.00
62418;BME280;48456;54.242;10.280;2023-03-21T03:07:18;101298.63;;;6.35;100.00
62418;BME280;48456;54.242;10.280;2023-03-21T03:14:49;101291.66;;;6.37;100.00
62418;BME280;48456;54.242;10.280;2023-03-21T03:17:34;101290.78;;;6.36;100.00
62418;BME280;48456;54.242;10.280;2023-03-21T03:20:07;101289.00;;;6.35;100.00
62418;BME280;48456;54.242;10.280;2023-03-21T03:25:38;101284.53;;;6.31;100.00
62418;BME280;48456;54.242;10.280;2023-03-21T03:28:09;101281.94;;;6.33;100.00
62418;BME280;48456;54.242;10.280;2023-03-21T03:30:36;101284.56;;;6.33;100.00
62418;BME280;48456;54.242;10.280;2023-03-21T03:33:16;101276.69;;;6.34;100.00
62418;BME280;48456;54.242;10.280;2023-03-21T03:35:43;101285.44;;;6.33;100.00
62418;BME280;48456;54.242;10.280;2023-03-21T03:38:18;101275.88;;;6.35;100.00
62418;BME280;48456;54.242;10.280;2023-03-21T03:40:54;101286.41;;;6.39;100.00
62418;BME280;48456;54.242;10.280;2023-03-21T03:43:25;101281.16;;;6.39;100.00
62418;BME280;48456;54.242;10.280;2023-03-21T03:45:55;101282.09;;;6.41;100.00
62418;BME280;48456;54.242;10.280;2023-03-21T03:48:25;101278.56;;;6.40;100.00
62418;BME280;48456;54.242;10.280;2023-03-21T03:50:55;101280.34;;;6.40;100.00
62418;BME280;48456;54.242;10.280;2023-03-21T03:53:33;101275.97;;;6.42;100.00
62418;BME280;48456;54.242;10.280;2023-03-21T03:56:02;101271.59;;;6.41;100.00
62418;BME280;48456;54.242;10.280;2023-03-21T03:58:30;101269.84;;;6.41;100.00
62418;BME280;48456;54.242;10.280;2023-03-21T04:01:10;101271.63;;;6.42;100.00
62418;BME280;48456;54.242;10.280;2023-03-21T04:03:37;101273.34;;;6.42;100.00
62418;BME280;48456;54.242;10.280;2023-03-21T04:06:15;101274.28;;;6.44;100.00
62418;BME280;48456;54.242;10.280;2023-03-21T04:08:42;101276.00;;;6.43;100.00
62418;BME280;48456;54.242;10.280;2023-03-21T04:11:09;101267.22;;;6.41;100.00
62418;BME280;48456;54.242;10.280;2023-03-21T04:13:36;101268.06;;;6.40;100.00
62418;BME280;48456;54.242;10.280;2023-03-21T04:16:02;101266.34;;;6.41;100.00
62418;BME280;48456;54.242;10.280;2023-03-21T04:18:30;101272.44;;;6.40;100.00
62418;BME280;48456;54.242;10.280;2023-03-21T04:20:57;101269.81;;;6.40;100.00
62418;BME280;48456;54.242;10.280;2023-03-21T04:23:23;101272.44;;;6.40;100.00
62418;BME280;48456;54.242;10.280;2023-03-21T04:25:50;101273.31;;;6.40;100.00
62418;BME280;48456;54.242;10.280;2023-03-21T04:28:22;101273.31;;;6.40;100.00
62418;BME280;48456;54.242;10.280;2023-03-21T04:30:48;101262.84;;;6.42;100.00
62418;BME280;48456;54.242;10.280;2023-03-21T04:33:28;101270.72;;;6.42;100.00
62418;BME280;48456;54.242;10.280;2023-03-21T04:35:54;101263.75;;;6.42;100.00
62418;BME280;48456;54.242;10.280;2023-03-21T04:38:22;101269.78;;;6.38;100.00
62418;BME280;48456;54.242;10.280;2023-03-21T04:40:48;101262.78;;;6.39;100.00
62418;BME280;48456;54.242;10.280;2023-03-21T04:43:14;101261.94;;;6.40;100.00
62418;BME280;48456;54.242;10.280;2023-03-21T04:45:41;101261.91;;;6.38;100.00
62418;BME280;48456;54.242;10.280;2023-03-21T04:48:08;101260.13;;;6.39;100.00
62418;BME280;48456;54.242;10.280;2023-03-21T04:50:34;101256.69;;;6.40;100.00
62418;BME280;48456;54.242;10.280;2023-03-21T04:53:01;101258.41;;;6.39;100.00
62418;BME280;48456;54.242;10.280;2023-03-21T04:55:27;101259.34;;;6.41;100.00
62418;BME280;48456;54.242;10.280;2023-03-21T04:57:56;101268.09;;;6.42;100.00
62418;BME280;48456;54.242;10.280;2023-03-21T05:00:23;101254.13;;;6.44;100.00
62418;BME280;48456;54.242;10.280;2023-03-21T05:02:51;101262.91;;;6.45;100.00
62418;BME280;48456;54.242;10.280;2023-03-21T05:05:17;101257.66;;;6.45;100.00
62418;BME280;48456;54.242;10.280;2023-03-21T05:07:44;101257.63;;;6.43;100.00
62418;BME280;48456;54.242;10.280;2023-03-21T05:10:11;101262.00;;;6.44;100.00
62418;BME280;48456;54.242;10.280;2023-03-21T05:12:37;101259.38;;;6.44;100.00
62418;BME280;48456;54.242;10.280;2023-03-21T05:15:04;101256.78;;;6.46;100.00
62418;BME280;48456;54.242;10.280;2023-03-21T05:17:30;101261.19;;;6.47;100.00
62418;BME280;48456;54.242;10.280;2023-03-21T05:19:57;101257.69;;;6.46;100.00
62418;BME280;48456;54.242;10.280;2023-03-21T05:22:23;101254.22;;;6.49;100.00
62418;BME280;48456;54.242;10.280;2023-03-21T05:24:52;101256.00;;;6.50;100.00
62418;BME280;48456;54.242;10.280;2023-03-21T05:27:21;101255.97;;;6.48;100.00
62418;BME280;48456;54.242;10.280;2023-03-21T05:30:00;101255.09;;;6.48;100.00
62418;BME280;48456;54.242;10.280;2023-03-21T05:32:27;101251.59;;;6.49;100.00
62418;BME280;48456;54.242;10.280;2023-03-21T05:34:53;101248.13;;;6.50;100.00
62418;BME280;48456;54.242;10.280;2023-03-21T05:37:20;101251.63;;;6.50;100.00
62418;BME280;48456;54.242;10.280;2023-03-21T05:39:46;101249.03;;;6.52;100.00
62418;BME280;48456;54.242;10.280;2023-03-21T05:42:12;101257.88;;;6.56;100.00
62418;BME280;48456;54.242;10.280;2023-03-21T05:44:39;101248.25;;;6.56;100.00
62418;BME280;48456;54.242;10.280;2023-03-21T05:47:05;101254.38;;;6.57;100.00
62418;BME280;48456;54.242;10.280;2023-03-21T05:49:32;101247.38;;;6.57;100.00
62418;BME280;48456;54.242;10.280;2023-03-21T05:51:58;101248.25;;;6.56;100.00
62418;BME280;48456;54.242;10.280;2023-03-21T05:54:24;101233.34;;;6.57;100.00
62418;BME280;48456;54.242;10.280;2023-03-21T05:56:51;101234.28;;;6.59;100.00
62418;BME280;48456;54.242;10.280;2023-03-21T05:59:17;101239.53;;;6.59;100.00
62418;BME280;48456;54.242;10.280;2023-03-21T06:01:44;101242.19;;;6.62;100.00
62418;BME280;48456;54.242;10.280;2023-03-21T06:04:10;101236.94;;;6.62;100.00
62418;BME280;48456;54.242;10.280;2023-03-21T06:06:37;101243.94;;;6.60;100.00
62418;BME280;48456;54.242;10.280;2023-03-21T06:09:03;101235.09;;;6.58;100.00
62418;BME280;48456;54.242;10.280;2023-03-21T06:11:30;101232.50;;;6.59;100.00
62418;BME280;48456;54.242;10.280;2023-03-21T06:13:57;101235.19;;;6.61;100.00
62418;BME280;48456;54.242;10.280;2023-03-21T06:16:23;101239.56;;;6.62;100.00
62418;BME280;48456;54.242;10.280;2023-03-21T06:18:50;101240.47;;;6.62;100.00
62418;BME280;48456;54.242;10.280;2023-03-21T06:21:16;101246.66;;;6.65;100.00
62418;BME280;48456;54.242;10.280;2023-03-21T06:23:43;101237.00;;;6.65;100.00
62418;BME280;48456;54.242;10.280;2023-03-21T06:26:09;101236.16;;;6.65;100.00
62418;BME280;48456;54.242;10.280;2023-03-21T06:28:35;101226.53;;;6.67;100.00
62418;BME280;48456;54.242;10.280;2023-03-21T06:31:02;101231.81;;;6.68;100.00
62418;BME280;48456;54.242;10.280;2023-03-21T06:33:29;101243.25;;;6.72;100.00
62418;BME280;48456;54.242;10.280;2023-03-21T06:35:56;101246.81;;;6.74;100.00
62418;BME280;48456;54.242;10.280;2023-03-21T06:38:23;101243.34;;;6.75;100.00
62418;BME280;48456;54.242;10.280;2023-03-21T06:40:50;101240.69;;;6.75;100.00
62418;BME280;48456;54.242;10.280;2023-03-21T06:43:16;101243.44;;;6.80;100.00
62418;BME280;48456;54.242;10.280;2023-03-21T06:45:43;101236.50;;;6.85;100.00
62418;BME280;48456;54.242;10.280;2023-03-21T06:48:09;101233.88;;;6.85;100.00
62418;BME280;48456;54.242;10.280;2023-03-21T06:50:36;101229.59;;;6.92;100.00
62418;BME280;48456;54.242;10.280;2023-03-21T06:53:02;101231.47;;;6.97;100.00
62418;BME280;48456;54.242;10.280;2023-03-21T06:55:29;101231.56;;;7.04;100.00
62418;BME280;48456;54.242;10.280;2023-03-21T06:57:55;101225.56;;;7.12;100.00
62418;BME280;48456;54.242;10.280;2023-03-21T07:00:22;101220.53;;;7.25;100.00
62418;BME280;48456;54.242;10.280;2023-03-21T07:02:49;101227.63;;;7.31;100.00
62418;BME280;48456;54.242;10.280;2023-03-21T07:05:16;101225.00;;;7.32;100.00
62418;BME280;48456;54.242;10.280;2023-03-21T07:07:43;101231.97;;;7.28;100.00
62418;BME280;48456;54.242;10.280;2023-03-21T07:10:09;101221.44;;;7.28;100.00
62418;BME280;48456;54.242;10.280;2023-03-21T07:12:36;101221.38;;;7.25;100.00
62418;BME280;48456;54.242;10.280;2023-03-21T07:15:02;101220.56;;;7.30;100.00
62418;BME280;48456;54.242;10.280;2023-03-21T07:17:29;101230.28;;;7.34;100.00
62418;BME280;48456;54.242;10.280;2023-03-21T07:19:56;101234.72;;;7.36;100.00
62418;BME280;48456;54.242;10.280;2023-03-21T07:22:22;101227.84;;;7.46;100.00
62418;BME280;48456;54.242;10.280;2023-03-21T07:24:48;101228.84;;;7.54;100.00
62418;BME280;48456;54.242;10.280;2023-03-21T07:27:29;101229.78;;;7.57;100.00
62418;BME280;48456;54.242;10.280;2023-03-21T07:29:56;101227.22;;;7.63;100.00
62418;BME280;48456;54.242;10.280;2023-03-21T07:32:22;101217.63;;;7.65;100.00
62418;BME280;48456;54.242;10.280;2023-03-21T07:34:48;101221.13;;;7.65;100.00
62418;BME280;48456;54.242;10.280;2023-03-21T07:37:15;101224.75;;;7.74;100.00
62418;BME280;48456;54.242;10.280;2023-03-21T07:39:41;101214.31;;;7.80;100.00
62418;BME280;48456;54.242;10.280;2023-03-21T07:42:08;101217.03;;;7.86;100.00
62418;BME280;48456;54.242;10.280;2023-03-21T07:44:37;101212.56;;;7.82;100.00
62418;BME280;48456;54.242;10.280;2023-03-21T07:47:04;101209.13;;;7.86;100.00
62418;BME280;48456;54.242;10.280;2023-03-21T07:49:31;101212.53;;;7.79;100.00
62418;BME280;48456;54.242;10.280;2023-03-21T07:51:57;101212.53;;;7.79;100.00
62418;BME280;48456;54.242;10.280;2023-03-21T07:54:24;101216.16;;;7.87;100.00
62418;BME280;48456;54.242;10.280;2023-03-21T07:56:51;101204.75;;;7.87;100.00
62418;BME280;48456;54.242;10.280;2023-03-21T07:59:17;101215.38;;;7.95;100.00
62418;BME280;48456;54.242;10.280;2023-03-21T08:01:43;101209.16;;;7.88;100.00
62418;BME280;48456;54.242;10.280;2023-03-21T08:04:10;101217.91;;;7.87;100.00
62418;BME280;48456;54.242;10.280;2023-03-21T08:06:36;101216.19;;;7.90;100.00
62418;BME280;48456;54.242;10.280;2023-03-21T08:09:03;101214.47;;;7.94;100.00
62418;BME280;48456;54.242;10.280;2023-03-21T08:11:29;101204.78;;;7.88;100.00
62418;BME280;48456;54.242;10.280;2023-03-21T08:13:57;101210.06;;;7.91;100.00
62418;BME280;48456;54.242;10.280;2023-03-21T08:16:23;101210.06;;;7.91;100.00
62418;BME280;48456;54.242;10.280;2023-03-21T08:18:50;101210.09;;;7.95;100.00
62418;BME280;48456;54.242;10.280;2023-03-21T08:21:16;101211.00;;;7.95;100.00
62418;BME280;48456;54.242;10.280;2023-03-21T08:23:43;101209.16;;;7.89;100.00
62418;BME280;48456;54.242;10.280;2023-03-21T08:26:09;101212.59;;;7.84;100.00
62418;BME280;48456;54.242;10.280;2023-03-21T08:28:36;101215.97;;;7.75;100.00
62418;BME280;48456;54.242;10.280;2023-03-21T08:31:07;101209.88;;;7.76;100.00
62418;BME280;48456;54.242;10.280;2023-03-21T08:33:34;101218.72;;;7.81;100.00
62418;BME280;48456;54.242;10.280;2023-03-21T08:36:01;101213.34;;;7.75;100.00
62418;BME280;48456;54.242;10.280;2023-03-21T08:38:28;101212.44;;;7.71;100.00
62418;BME280;48456;54.242;10.280;2023-03-21T08:40:55;101216.00;;;7.76;100.00
62418;BME280;48456;54.242;10.280;2023-03-21T08:43:25;101216.91;;;7.77;100.00
62418;BME280;48456;54.242;10.280;2023-03-21T08:45:52;101209.06;;;7.83;100.00
62418;BME280;48456;54.242;10.280;2023-03-21T08:48:19;101213.63;;;7.93;100.00
62418;BME280;48456;54.242;10.280;2023-03-21T08:50:46;101208.44;;;8.01;100.00
62418;BME280;48456;54.242;10.280;2023-03-21T08:53:12;101215.44;;;7.99;100.00
62418;BME280;48456;54.242;10.280;2023-03-21T08:55:38;101206.53;;;7.89;100.00
62418;BME280;48456;54.242;10.280;2023-03-21T08:58:05;101215.34;;;7.93;100.00
62418;BME280;48456;54.242;10.280;2023-03-21T09:00:32;101215.44;;;8.01;100.00
62418;BME280;48456;54.242;10.280;2023-03-21T09:02:58;101212.00;;;8.03;100.00
62418;BME280;48456;54.242;10.280;2023-03-21T09:05:24;101216.34;;;8.01;100.00
62418;BME280;48456;54.242;10.280;2023-03-21T09:07:52;101209.25;;;7.97;100.00
62418;BME280;48456;54.242;10.280;2023-03-21T09:10:19;101204.00;;;7.97;100.00
62418;BME280;48456;54.242;10.280;2023-03-21T09:12:48;101211.91;;;7.97;100.00
62418;BME280;48456;54.242;10.280;2023-03-21T09:15:15;101205.81;;;8.03;100.00
62418;BME280;48456;54.242;10.280;2023-03-21T09:17:43;101207.63;;;8.07;100.00
62418;BME280;48456;54.242;10.280;2023-03-21T09:20:14;101208.63;;;8.15;100.00
62418;BME280;48456;54.242;10.280;2023-03-21T09:22:47;101212.09;;;8.13;100.00
62418;BME280;48456;54.242;10.280;2023-03-21T09:25:14;101207.72;;;8.15;100.00
62418;BME280;48456;54.242;10.280;2023-03-21T09:27:41;101205.09;;;8.16;100.00
62418;BME280;48456;54.242;10.280;2023-03-21T09:30:14;101204.16;;;8.11;100.00
62418;BME280;48456;54.242;10.280;2023-03-21T09:32:42;101199.81;;;8.12;100.00
62418;BME280;48456;54.242;10.280;2023-03-21T09:35:12;101204.22;;;8.14;100.00
62418;BME280;48456;54.242;10.280;2023-03-21T09:37:41;101201.59;;;8.17;100.00
62418;BME280;48456;54.242;10.280;2023-03-21T09:45:22;101203.41;;;8.20;100.00
62418;BME280;48456;54.242;10.280;2023-03-21T09:47:53;101192.00;;;8.21;100.00
62418;BME280;48456;54.242;10.280;2023-03-21T09:50:21;101197.28;;;8.21;100.00
62418;BME280;48456;54.242;10.280;2023-03-21T09:52:56;101199.06;;;8.24;100.00
62418;BME280;48456;54.242;10.280;2023-03-21T09:55:24;101195.63;;;8.32;100.00
62418;BME280;48456;54.242;10.280;2023-03-21T10:00:27;101187.72;;;8.34;100.00
62418;BME280;48456;54.242;10.280;2023-03-21T10:02:56;101184.22;;;8.32;100.00
62418;BME280;48456;54.242;10.280;2023-03-21T10:05:27;101185.06;;;8.32;100.00
62418;BME280;48456;54.242;10.280;2023-03-21T10:08:02;101190.44;;;8.39;100.00
62418;BME280;48456;54.242;10.280;2023-03-21T10:10:35;101185.19;;;8.42;100.00
62418;BME280;48456;54.242;10.280;2023-03-21T10:13:04;101188.69;;;8.41;100.00
62418;BME280;48456;54.242;10.280;2023-03-21T10:15:32;101182.50;;;8.37;100.00
62418;BME280;48456;54.242;10.280;2023-03-21T10:20:26;101178.25;;;8.49;100.00
62418;BME280;48456;54.242;10.280;2023-03-21T10:22:54;101183.53;;;8.50;100.00
62418;BME280;48456;54.242;10.280;2023-03-21T10:25:32;101180.94;;;8.53;100.00
62418;BME280;48456;54.242;10.280;2023-03-21T10:27:59;101176.44;;;8.44;100.00
62418;BME280;48456;54.242;10.280;2023-03-21T10:33:15;101180.91;;;8.50;100.00
62418;BME280;48456;54.242;10.280;2023-03-21T10:35:44;101176.50;;;8.52;100.00
62418;BME280;48456;54.242;10.280;2023-03-21T10:38:15;101176.59;;;8.57;100.00
62418;BME280;48456;54.242;10.280;2023-03-21T10:40:43;101183.63;;;8.58;100.00
62418;BME280;48456;54.242;10.280;2023-03-21T10:45:51;101172.25;;;8.62;100.00
62418;BME280;48456;54.242;10.280;2023-03-21T10:48:18;101158.22;;;8.66;100.00
62418;BME280;48456;54.242;10.280;2023-03-21T10:50:50;101159.06;;;8.62;100.00
62418;BME280;48456;54.242;10.280;2023-03-21T10:53:21;101159.06;;;8.62;100.00
62418;BME280;48456;54.242;10.280;2023-03-21T10:55:51;101161.75;;;8.68;100.00
62418;BME280;48456;54.242;10.280;2023-03-21T10:58:20;101152.16;;;8.78;100.00
62418;BME280;48456;54.242;10.280;2023-03-21T11:00:52;101150.50;;;8.90;100.00
62418;BME280;48456;54.242;10.280;2023-03-21T11:03:20;101147.88;;;8.91;100.00
62418;BME280;48456;54.242;10.280;2023-03-21T11:05:51;101140.84;;;8.92;100.00
62418;BME280;48456;54.242;10.280;2023-03-21T11:08:18;101147.84;;;8.88;100.00
62418;BME280;48456;54.242;10.280;2023-03-21T11:10:50;101140.81;;;8.87;100.00
62418;BME280;48456;54.242;10.280;2023-03-21T11:13:18;101136.28;;;8.70;100.00
62418;BME280;48456;54.242;10.280;2023-03-21T11:18:19;101137.16;;;8.69;100.00
62418;BME280;48456;54.242;10.280;2023-03-21T11:20:56;101137.97;;;8.62;100.00
62418;BME280;48456;54.242;10.280;2023-03-21T11:23:27;101134.53;;;8.69;100.00
62418;BME280;48456;54.242;10.280;2023-03-21T11:25:54;101133.66;;;8.70;100.00
62418;BME280;48456;54.242;10.280;2023-03-21T11:28:24;101132.81;;;8.76;100.00
62418;BME280;48456;54.242;10.280;2023-03-21T11:30:55;101132.88;;;8.84;100.00
62418;BME280;48456;54.242;10.280;2023-03-21T11:33:26;101130.25;;;8.86;100.00
62418;BME280;48456;54.242;10.280;2023-03-21T11:35:57;101129.41;;;8.91;100.00
62418;BME280;48456;54.242;10.280;2023-03-21T11:38:37;101126.78;;;8.90;100.00
62418;BME280;48456;54.242;10.280;2023-03-21T11:41:04;101130.28;;;8.89;100.00
62418;BME280;48456;54.242;10.280;2023-03-21T11:43:33;101127.69;;;8.96;100.00
62418;BME280;48456;54.242;10.280;2023-03-21T11:46:04;101127.69;;;8.96;100.00
62418;BME280;48456;54.242;10.280;2023-03-21T11:48:32;101118.06;;;9.02;100.00
62418;BME280;48456;54.242;10.280;2023-03-21T11:51:06;101112.78;;;9.02;100.00
62418;BME280;48456;54.242;10.280;2023-03-21T11:53:36;101111.03;;;9.07;100.00
62418;BME280;48456;54.242;10.280;2023-03-21T12:01:31;101100.41;;;8.91;100.00
62418;BME280;48456;54.242;10.280;2023-03-21T12:06:48;101097.00;;;9.08;100.00
62418;BME280;48456;54.242;10.280;2023-03-21T12:12:01;101092.56;;;9.04;100.00
62418;BME280;48456;54.242;10.280;2023-03-21T12:17:17;101079.34;;;9.01;100.00
62418;BME280;48456;54.242;10.280;2023-03-21T12:22:47;101074.19;;;9.16;100.00
62418;BME280;48456;54.242;10.280;2023-03-21T12:25:18;101071.50;;;9.13;100.00
62418;BME280;48456;54.242;10.280;2023-03-21T12:32:49;101067.09;;;9.09;100.00
62418;BME280;48456;54.242;10.280;2023-03-21T12:35:54;101065.34;;;9.09;100.00
62418;BME280;48456;54.242;10.280;2023-03-21T12:38:21;101060.97;;;9.16;100.00
62418;BME280;48456;54.242;10.280;2023-03-21T12:43:28;101053.13;;;9.32;100.00
62418;BME280;48456;54.242;10.280;2023-03-21T12:46:00;101044.38;;;9.41;100.00
62418;BME280;48456;54.242;10.280;2023-03-21T12:51:04;101038.28;;;9.57;100.00
62418;BME280;48456;54.242;10.280;2023-03-21T12:56:08;101032.09;;;9.47;100.00
62418;BME280;48456;54.242;10.280;2023-03-21T12:58:39;101030.28;;;9.40;100.00
62418;BME280;48456;54.242;10.280;2023-03-21T13:01:08;101028.56;;;9.48;100.00
62418;BME280;48456;54.242;10.280;2023-03-21T13:03:40;101021.53;;;9.49;100.00
62418;BME280;48456;54.242;10.280;2023-03-21T13:06:09;101023.28;;;9.44;100.00
62418;BME280;48456;54.242;10.280;2023-03-21T13:08:51;101015.34;;;9.47;100.00
62418;BME280;48456;54.242;10.280;2023-03-21T13:11:21;101023.28;;;9.52;100.00
62418;BME280;48456;54.242;10.280;2023-03-21T13:16:17;101015.31;;;9.31;100.00
62418;BME280;48456;54.242;10.280;2023-03-21T13:21:21;101009.97;;;9.25;100.00
62418;BME280;48456;54.242;10.280;2023-03-21T13:26:54;101008.22;;;9.24;100.00
62418;BME280;48456;54.242;10.280;2023-03-21T13:29:26;101002.94;;;9.24;100.00
62418;BME280;48456;54.242;10.280;2023-03-21T13:31:54;100995.91;;;9.25;100.00
62418;BME280;48456;54.242;10.280;2023-03-21T13:34:23;100997.69;;;9.27;100.00
62418;BME280;48456;54.242;10.280;2023-03-21T13:36:50;100985.34;;;9.29;100.00
62418;BME280;48456;54.242;10.280;2023-03-21T13:39:18;100996.84;;;9.38;100.00
62418;BME280;48456;54.242;10.280;2023-03-21T13:41:45;100994.22;;;9.48;100.00
62418;BME280;48456;54.242;10.280;2023-03-21T13:46:44;100987.19;;;9.49;100.00
62418;BME280;48456;54.242;10.280;2023-03-21T13:49:27;100983.69;;;9.52;100.00
62418;BME280;48456;54.242;10.280;2023-03-21T13:51:54;100981.00;;;9.47;100.00
62418;BME280;48456;54.242;10.280;2023-03-21T13:57:00;100969.56;;;9.35;100.00
62418;BME280;48456;54.242;10.280;2023-03-21T14:04:41;100970.38;;;9.25;100.00
62418;BME280;48456;54.242;10.280;2023-03-21T14:07:29;100976.56;;;9.26;100.00
62418;BME280;48456;54.242;10.280;2023-03-21T14:10:07;100970.38;;;9.25;100.00
62418;BME280;48456;54.242;10.280;2023-03-21T14:12:39;100966.88;;;9.28;100.00
62418;BME280;48456;54.242;10.280;2023-03-21T14:15:07;100971.28;;;9.33;100.00
62418;BME280;48456;54.242;10.280;2023-03-21T14:17:48;100959.84;;;9.34;100.00
62418;BME280;48456;54.242;10.280;2023-03-21T14:20:20;100963.38;;;9.35;100.00
62418;BME280;48456;54.242;10.280;2023-03-21T14:22:47;100965.16;;;9.31;100.00